sensor_id;sensor_type;location;lat;lon;timestamp;temperature;humidity
52979;DHT22;63430;53.186;6.598;2023-12-14T00:00:48;4.60;99.90
52979;DHT22;63430;53.186;6.598;2023-12-14T00:02:52;4.60;99.90
52979;DHT22;63430;53.186;6.598;2023-12-14T00:05:18;6.00;99.90
52979;DHT22;63430;53.186;6.598;2023-12-14T00:07:23;4.60;99.90
52979;DHT22;63430;53.186;6.598;2023-12-14T00:09:25;4.60;99.90
52979;DHT22;63430;53.186;6.598;2023-12-14T00:11:31;4.60;99.90
52979;DHT22;63430;53.186;6.598;2023-12-14T00:13:33;4.60;99.90
52979;DHT22;63430;53.186;6.598;2023-12-14T00:15:39;4.60;99.90
52979;DHT22;63430;53.186;6.598;2023-12-14T00:17:41;4.60;99.90
52979;DHT22;63430;53.186;6.598;2023-12-14T00:19:44;4.60;99.90
52979;DHT22;63430;53.186;6.598;2023-12-14T00:21:47;4.30;99.90
52979;DHT22;63430;53.186;6.598;2023-12-14T00:23:50;4.50;99.90
52979;DHT22;63430;53.186;6.598;2023-12-14T00:25:53;4.50;99.90
52979;DHT22;63430;53.186;6.598;2023-12-14T00:27:58;4.60;99.90
52979;DHT22;63430;53.186;6.598;2023-12-14T00:30:01;4.50;99.90
52979;DHT22;63430;53.186;6.598;2023-12-14T00:32:07;4.50;99.90
52979;DHT22;63430;53.186;6.598;2023-12-14T00:34:10;4.50;99.90
52979;DHT22;63430;53.186;6.598;2023-12-14T00:36:18;4.50;99.90
52979;DHT22;63430;53.186;6.598;2023-12-14T00:38:22;4.60;99.90
52979;DHT22;63430;53.186;6.598;2023-12-14T00:40:24;6.00;99.90
52979;DHT22;63430;53.186;6.598;2023-12-14T00:42:27;4.50;99.90
52979;DHT22;63430;53.186;6.598;2023-12-14T00:44:33;4.50;99.90
52979;DHT22;63430;53.186;6.598;2023-12-14T00:46:36;4.60;99.90
52979;DHT22;63430;53.186;6.598;2023-12-14T00:48:41;4.50;99.90
52979;DHT22;63430;53.186;6.598;2023-12-14T00:50:44;4.50;99.90
52979;DHT22;63430;53.186;6.598;2023-12-14T00:52:47;4.50;99.90
52979;DHT22;63430;53.186;6.598;2023-12-14T00:54:50;4.50;99.90
52979;DHT22;63430;53.186;6.598;2023-12-14T00:56:53;4.50;99.90
52979;DHT22;63430;53.186;6.598;2023-12-14T00:58:55;5.90;99.90
52979;DHT22;63430;53.186;6.598;2023-12-14T01:01:01;4.50;99.90
52979;DHT22;63430;53.186;6.598;2023-12-14T01:03:05;4.50;99.90
52979;DHT22;63430;53.186;6.598;2023-12-14T01:05:09;4.50;99.90
52979;DHT22;63430;53.186;6.598;2023-12-14T01:07:31;4.50;99.90
52979;DHT22;63430;53.186;6.598;2023-12-14T01:09:34;6.10;99.90
52979;DHT22;63430;53.186;6.598;2023-12-14T01:11:37;4.40;99.90
52979;DHT22;63430;53.186;6.598;2023-12-14T01:13:40;4.50;99.90
52979;DHT22;63430;53.186;6.598;2023-12-14T01:15:43;4.50;99.90
52979;DHT22;63430;53.186;6.598;2023-12-14T01:17:48;4.40;99.90
52979;DHT22;63430;53.186;6.598;2023-12-14T01:19:51;4.40;99.90
52979;DHT22;63430;53.186;6.598;2023-12-14T01:21:54;5.70;99.90
52979;DHT22;63430;53.186;6.598;2023-12-14T01:23:57;4.40;99.90
52979;DHT22;63430;53.186;6.598;2023-12-14T01:26:00;4.40;99.90
52979;DHT22;63430;53.186;6.598;2023-12-14T01:28:03;4.40;99.90
52979;DHT22;63430;53.186;6.598;2023-12-14T01:30:08;4.40;99.90
52979;DHT22;63430;53.186;6.598;2023-12-14T01:32:12;4.50;99.90
52979;DHT22;63430;53.186;6.598;2023-12-14T01:34:17;4.50;99.90
52979;DHT22;63430;53.186;6.598;2023-12-14T01:36:21;4.50;99.90
52979;DHT22;63430;53.186;6.598;2023-12-14T01:38:24;4.50;99.90
52979;DHT22;63430;53.186;6.598;2023-12-14T01:40:26;4.40;99.90
52979;DHT22;63430;53.186;6.598;2023-12-14T01:42:29;4.50;99.90
52979;DHT22;63430;53.186;6.598;2023-12-14T01:44:33;4.50;99.90
52979;DHT22;63430;53.186;6.598;2023-12-14T01:46:56;4.40;99.90
52979;DHT22;63430;53.186;6.598;2023-12-14T01:48:58;3.80;99.90
52979;DHT22;63430;53.186;6.598;2023-12-14T01:51:05;4.40;99.90
52979;DHT22;63430;53.186;6.598;2023-12-14T01:53:08;4.50;99.90
52979;DHT22;63430;53.186;6.598;2023-12-14T01:55:11;4.40;99.90
52979;DHT22;63430;53.186;6.598;2023-12-14T01:57:14;4.50;99.90
52979;DHT22;63430;53.186;6.598;2023-12-14T01:59:17;3.20;99.90
52979;DHT22;63430;53.186;6.598;2023-12-14T02:01:25;4.50;99.90
52979;DHT22;63430;53.186;6.598;2023-12-14T02:03:30;4.50;99.90
52979;DHT22;63430;53.186;6.598;2023-12-14T02:05:33;4.50;99.90
52979;DHT22;63430;53.186;6.598;2023-12-14T02:07:38;4.50;99.90
52979;DHT22;63430;53.186;6.598;2023-12-14T02:09:41;4.50;99.90
52979;DHT22;63430;53.186;6.598;2023-12-14T02:11:43;4.50;99.90
52979;DHT22;63430;53.186;6.598;2023-12-14T02:13:46;4.40;99.90
52979;DHT22;63430;53.186;6.598;2023-12-14T02:15:49;4.40;99.90
52979;DHT22;63430;53.186;6.598;2023-12-14T02:17:51;4.70;99.90
52979;DHT22;63430;53.186;6.598;2023-12-14T02:19:54;4.40;99.90
52979;DHT22;63430;53.186;6.598;2023-12-14T02:21:57;4.40;99.90
52979;DHT22;63430;53.186;6.598;2023-12-14T02:24:02;4.50;99.90
52979;DHT22;63430;53.186;6.598;2023-12-14T02:26:05;4.50;99.90
52979;DHT22;63430;53.186;6.598;2023-12-14T02:28:08;4.50;99.90
52979;DHT22;63430;53.186;6.598;2023-12-14T02:30:12;4.40;99.90
52979;DHT22;63430;53.186;6.598;2023-12-14T02:32:14;4.50;99.90
52979;DHT22;63430;53.186;6.598;2023-12-14T02:34:37;4.40;99.90
52979;DHT22;63430;53.186;6.598;2023-12-14T02:36:40;6.10;99.90
52979;DHT22;63430;53.186;6.598;2023-12-14T02:38:43;4.50;99.90
52979;DHT22;63430;53.186;6.598;2023-12-14T02:40:48;4.10;99.90
52979;DHT22;63430;53.186;6.598;2023-12-14T02:42:52;4.50;99.90
52979;DHT22;63430;53.186;6.598;2023-12-14T02:44:56;4.40;99.90
52979;DHT22;63430;53.186;6.598;2023-12-14T02:46:59;4.40;99.90
52979;DHT22;63430;53.186;6.598;2023-12-14T02:49:01;4.30;99.90
52979;DHT22;63430;53.186;6.598;2023-12-14T02:51:04;5.80;99.90
52979;DHT22;63430;53.186;6.598;2023-12-14T02:53:07;4.40;99.90
52979;DHT22;63430;53.186;6.598;2023-12-14T02:55:13;3.50;99.90
52979;DHT22;63430;53.186;6.598;2023-12-14T02:57:18;4.40;99.90
52979;DHT22;63430;53.186;6.598;2023-12-14T02:59:21;4.40;99.90
52979;DHT22;63430;53.186;6.598;2023-12-14T03:01:24;4.40;99.90
52979;DHT22;63430;53.186;6.598;2023-12-14T03:03:26;4.50;99.90
52979;DHT22;63430;53.186;6.598;2023-12-14T03:05:30;4.40;99.90
52979;DHT22;63430;53.186;6.598;2023-12-14T03:07:33;4.50;99.90
52979;DHT22;63430;53.186;6.598;2023-12-14T03:09:39;4.40;99.90
52979;DHT22;63430;53.186;6.598;2023-12-14T03:11:43;4.30;99.90
52979;DHT22;63430;53.186;6.598;2023-12-14T03:13:49;4.40;99.90
52979;DHT22;63430;53.186;6.598;2023-12-14T03:15:51;4.90;99.90
52979;DHT22;63430;53.186;6.598;2023-12-14T03:17:54;4.40;99.90
52979;DHT22;63430;53.186;6.598;2023-12-14T03:19:59;4.40;99.90
52979;DHT22;63430;53.186;6.598;2023-12-14T03:22:22;4.80;99.90
52979;DHT22;63430;53.186;6.598;2023-12-14T03:24:25;4.40;99.90
52979;DHT22;63430;53.186;6.598;2023-12-14T03:26:27;4.50;99.90
52979;DHT22;63430;53.186;6.598;2023-12-14T03:28:30;4.50;99.90
52979;DHT22;63430;53.186;6.598;2023-12-14T03:30:35;4.60;99.90
52979;DHT22;63430;53.186;6.598;2023-12-14T03:32:38;4.50;99.90
52979;DHT22;63430;53.186;6.598;2023-12-14T03:34:41;5.30;99.90
52979;DHT22;63430;53.186;6.598;2023-12-14T03:36:44;4.40;99.90
52979;DHT22;63430;53.186;6.598;2023-12-14T03:38:46;4.50;99.90
52979;DHT22;63430;53.186;6.598;2023-12-14T03:40:49;4.50;99.90
52979;DHT22;63430;53.186;6.598;2023-12-14T03:42:52;4.50;99.90
52979;DHT22;63430;53.186;6.598;2023-12-14T03:44:55;4.50;99.90
52979;DHT22;63430;53.186;6.598;2023-12-14T03:47:00;4.50;99.90
52979;DHT22;63430;53.186;6.598;2023-12-14T03:49:03;4.50;99.90
52979;DHT22;63430;53.186;6.598;2023-12-14T03:51:06;4.50;99.90
52979;DHT22;63430;53.186;6.598;2023-12-14T03:53:09;4.50;99.90
52979;DHT22;63430;53.186;6.598;2023-12-14T03:55:12;4.50;99.90
52979;DHT22;63430;53.186;6.598;2023-12-14T03:57:14;4.50;99.90
52979;DHT22;63430;53.186;6.598;2023-12-14T03:59:17;4.50;99.90
52979;DHT22;63430;53.186;6.598;2023-12-14T04:01:20;4.50;99.90
52979;DHT22;63430;53.186;6.598;2023-12-14T04:03:26;4.40;99.90
52979;DHT22;63430;53.186;6.598;2023-12-14T04:05:28;4.50;99.90
52979;DHT22;63430;53.186;6.598;2023-12-14T04:07:32;4.40;99.90
52979;DHT22;63430;53.186;6.598;2023-12-14T04:09:37;4.40;99.90
52979;DHT22;63430;53.186;6.598;2023-12-14T04:12:00;4.50;99.90
52979;DHT22;63430;53.186;6.598;2023-12-14T04:14:03;4.40;99.90
52979;DHT22;63430;53.186;6.598;2023-12-14T04:16:06;4.40;99.90
52979;DHT22;63430;53.186;6.598;2023-12-14T04:18:31;4.40;99.90
52979;DHT22;63430;53.186;6.598;2023-12-14T04:20:34;4.40;99.90
52979;DHT22;63430;53.186;6.598;2023-12-14T04:22:37;4.70;99.90
52979;DHT22;63430;53.186;6.598;2023-12-14T04:24:40;4.50;99.90
52979;DHT22;63430;53.186;6.598;2023-12-14T04:26:43;4.40;99.90
52979;DHT22;63430;53.186;6.598;2023-12-14T04:28:46;4.40;99.90
52979;DHT22;63430;53.186;6.598;2023-12-14T04:30:49;4.30;99.90
52979;DHT22;63430;53.186;6.598;2023-12-14T04:32:51;4.40;99.90
52979;DHT22;63430;53.186;6.598;2023-12-14T04:34:57;4.40;99.90
52979;DHT22;63430;53.186;6.598;2023-12-14T04:37:02;4.40;99.90
52979;DHT22;63430;53.186;6.598;2023-12-14T04:39:07;4.40;99.90
52979;DHT22;63430;53.186;6.598;2023-12-14T04:41:10;4.40;99.90
52979;DHT22;63430;53.186;6.598;2023-12-14T04:43:13;4.40;99.90
52979;DHT22;63430;53.186;6.598;2023-12-14T04:45:15;4.40;99.90
52979;DHT22;63430;53.186;6.598;2023-12-14T04:47:19;3.70;99.90
52979;DHT22;63430;53.186;6.598;2023-12-14T04:49:21;4.30;99.90
52979;DHT22;63430;53.186;6.598;2023-12-14T04:51:27;4.40;99.90
52979;DHT22;63430;53.186;6.598;2023-12-14T04:53:30;4.10;99.90
52979;DHT22;63430;53.186;6.598;2023-12-14T04:55:33;4.40;99.90
52979;DHT22;63430;53.186;6.598;2023-12-14T04:57:55;4.40;99.90
52979;DHT22;63430;53.186;6.598;2023-12-14T04:59:58;5.00;99.90
52979;DHT22;63430;53.186;6.598;2023-12-14T05:02:01;4.30;99.90
52979;DHT22;63430;53.186;6.598;2023-12-14T05:04:04;4.40;99.90
52979;DHT22;63430;53.186;6.598;2023-12-14T05:06:07;5.50;99.90
52979;DHT22;63430;53.186;6.598;2023-12-14T05:08:13;4.40;99.90
52979;DHT22;63430;53.186;6.598;2023-12-14T05:10:16;5.30;99.90
52979;DHT22;63430;53.186;6.598;2023-12-14T05:12:19;4.40;99.90
52979;DHT22;63430;53.186;6.598;2023-12-14T05:14:21;4.30;99.90
52979;DHT22;63430;53.186;6.598;2023-12-14T05:16:24;4.40;99.90
52979;DHT22;63430;53.186;6.598;2023-12-14T05:18:29;4.40;99.90
52979;DHT22;63430;53.186;6.598;2023-12-14T05:20:32;4.80;99.90
52979;DHT22;63430;53.186;6.598;2023-12-14T05:22:35;4.30;99.90
52979;DHT22;63430;53.186;6.598;2023-12-14T05:25:00;4.10;99.90
52979;DHT22;63430;53.186;6.598;2023-12-14T05:27:04;4.30;99.90
52979;DHT22;63430;53.186;6.598;2023-12-14T05:29:06;4.40;99.90
52979;DHT22;63430;53.186;6.598;2023-12-14T05:31:09;4.40;99.90
52979;DHT22;63430;53.186;6.598;2023-12-14T05:33:12;5.50;99.90
52979;DHT22;63430;53.186;6.598;2023-12-14T05:35:34;5.40;99.90
52979;DHT22;63430;53.186;6.598;2023-12-14T05:37:38;5.50;99.90
52979;DHT22;63430;53.186;6.598;2023-12-14T05:39:41;4.20;99.90
52979;DHT22;63430;53.186;6.598;2023-12-14T05:41:47;4.50;99.90
52979;DHT22;63430;53.186;6.598;2023-12-14T05:43:49;4.40;99.90
52979;DHT22;63430;53.186;6.598;2023-12-14T05:45:52;4.00;99.90
52979;DHT22;63430;53.186;6.598;2023-12-14T05:47:55;4.20;99.90
52979;DHT22;63430;53.186;6.598;2023-12-14T05:49:58;4.40;99.90
52979;DHT22;63430;53.186;6.598;2023-12-14T05:52:01;4.40;99.90
52979;DHT22;63430;53.186;6.598;2023-12-14T05:54:04;4.40;99.90
52979;DHT22;63430;53.186;6.598;2023-12-14T05:56:08;4.40;99.90
52979;DHT22;63430;53.186;6.598;2023-12-14T05:58:14;4.40;99.90
52979;DHT22;63430;53.186;6.598;2023-12-14T06:00:18;4.40;99.90
52979;DHT22;63430;53.186;6.598;2023-12-14T06:02:22;4.40;99.90
52979;DHT22;63430;53.186;6.598;2023-12-14T06:04:26;4.40;99.90
52979;DHT22;63430;53.186;6.598;2023-12-14T06:06:29;4.10;99.90
52979;DHT22;63430;53.186;6.598;2023-12-14T06:08:32;4.40;99.90
52979;DHT22;63430;53.186;6.598;2023-12-14T06:10:55;5.40;99.90
52979;DHT22;63430;53.186;6.598;2023-12-14T06:13:00;4.40;99.90
52979;DHT22;63430;53.186;6.598;2023-12-14T06:15:07;4.20;99.90
52979;DHT22;63430;53.186;6.598;2023-12-14T06:17:10;4.40;99.90
52979;DHT22;63430;53.186;6.598;2023-12-14T06:19:12;4.40;99.90
52979;DHT22;63430;53.186;6.598;2023-12-14T06:21:15;4.40;99.90
52979;DHT22;63430;53.186;6.598;2023-12-14T06:23:18;4.40;99.90
52979;DHT22;63430;53.186;6.598;2023-12-14T06:25:21;4.30;99.90
52979;DHT22;63430;53.186;6.598;2023-12-14T06:27:24;4.40;99.90
52979;DHT22;63430;53.186;6.598;2023-12-14T06:29:28;4.40;99.90
52979;DHT22;63430;53.186;6.598;2023-12-14T06:31:34;4.40;99.90
52979;DHT22;63430;53.186;6.598;2023-12-14T06:33:36;4.40;99.90
52979;DHT22;63430;53.186;6.598;2023-12-14T06:35:39;4.20;99.90
52979;DHT22;63430;53.186;6.598;2023-12-14T06:37:42;4.20;99.90
52979;DHT22;63430;53.186;6.598;2023-12-14T06:39:45;4.40;99.90
52979;DHT22;63430;53.186;6.598;2023-12-14T06:41:48;4.40;99.90
52979;DHT22;63430;53.186;6.598;2023-12-14T06:43:54;4.40;99.90
52979;DHT22;63430;53.186;6.598;2023-12-14T06:46:17;5.40;99.90
52979;DHT22;63430;53.186;6.598;2023-12-14T06:48:22;4.40;99.90
52979;DHT22;63430;53.186;6.598;2023-12-14T06:50:25;4.40;99.90
52979;DHT22;63430;53.186;6.598;2023-12-14T06:52:28;4.40;99.90
52979;DHT22;63430;53.186;6.598;2023-12-14T06:54:30;4.40;99.90
52979;DHT22;63430;53.186;6.598;2023-12-14T06:56:33;4.40;99.90
52979;DHT22;63430;53.186;6.598;2023-12-14T06:58:35;4.40;99.90
52979;DHT22;63430;53.186;6.598;2023-12-14T07:00:38;4.40;99.90
52979;DHT22;63430;53.186;6.598;2023-12-14T07:02:40;4.40;99.90
52979;DHT22;63430;53.186;6.598;2023-12-14T07:04:46;4.40;99.90
52979;DHT22;63430;53.186;6.598;2023-12-14T07:06:52;4.40;99.90
52979;DHT22;63430;53.186;6.598;2023-12-14T07:08:56;4.40;99.90
52979;DHT22;63430;53.186;6.598;2023-12-14T07:10:58;4.40;99.90
52979;DHT22;63430;53.186;6.598;2023-12-14T07:13:01;4.40;99.90
52979;DHT22;63430;53.186;6.598;2023-12-14T07:15:05;4.60;99.90
52979;DHT22;63430;53.186;6.598;2023-12-14T07:17:08;4.40;99.90
52979;DHT22;63430;53.186;6.598;2023-12-14T07:19:11;5.00;99.90
52979;DHT22;63430;53.186;6.598;2023-12-14T07:21:16;4.40;99.90
52979;DHT22;63430;53.186;6.598;2023-12-14T07:23:22;4.40;99.90
52979;DHT22;63430;53.186;6.598;2023-12-14T07:25:27;4.40;99.90
52979;DHT22;63430;53.186;6.598;2023-12-14T07:27:32;4.40;99.90
52979;DHT22;63430;53.186;6.598;2023-12-14T07:29:35;4.40;99.90
52979;DHT22;63430;53.186;6.598;2023-12-14T07:31:37;4.40;99.90
52979;DHT22;63430;53.186;6.598;2023-12-14T07:33:40;4.40;99.90
52979;DHT22;63430;53.186;6.598;2023-12-14T07:35:43;5.40;99.90
52979;DHT22;63430;53.186;6.598;2023-12-14T07:37:48;4.40;99.90
52979;DHT22;63430;53.186;6.598;2023-12-14T07:39:50;4.40;99.90
52979;DHT22;63430;53.186;6.598;2023-12-14T07:41:53;4.40;99.90
52979;DHT22;63430;53.186;6.598;2023-12-14T07:43:56;4.40;99.90
52979;DHT22;63430;53.186;6.598;2023-12-14T07:45:59;4.40;99.90
52979;DHT22;63430;53.186;6.598;2023-12-14T07:48:02;4.40;99.90
52979;DHT22;63430;53.186;6.598;2023-12-14T07:50:07;4.50;99.90
52979;DHT22;63430;53.186;6.598;2023-12-14T07:52:09;4.40;99.90
52979;DHT22;63430;53.186;6.598;2023-12-14T07:54:15;5.70;99.90
52979;DHT22;63430;53.186;6.598;2023-12-14T07:56:17;4.40;99.90
52979;DHT22;63430;53.186;6.598;2023-12-14T07:58:20;4.70;99.90
52979;DHT22;63430;53.186;6.598;2023-12-14T08:00:23;4.40;99.90
52979;DHT22;63430;53.186;6.598;2023-12-14T08:02:26;4.40;99.90
52979;DHT22;63430;53.186;6.598;2023-12-14T08:04:28;4.40;99.90
52979;DHT22;63430;53.186;6.598;2023-12-14T08:06:31;4.40;99.90
52979;DHT22;63430;53.186;6.598;2023-12-14T08:08:34;4.40;99.90
52979;DHT22;63430;53.186;6.598;2023-12-14T08:10:40;4.80;99.90
52979;DHT22;63430;53.186;6.598;2023-12-14T08:12:42;4.50;99.90
52979;DHT22;63430;53.186;6.598;2023-12-14T08:15:05;4.40;99.90
52979;DHT22;63430;53.186;6.598;2023-12-14T08:17:10;4.50;99.90
52979;DHT22;63430;53.186;6.598;2023-12-14T08:19:13;4.50;99.90
52979;DHT22;63430;53.186;6.598;2023-12-14T08:21:16;4.50;99.90
52979;DHT22;63430;53.186;6.598;2023-12-14T08:23:19;4.50;99.90
52979;DHT22;63430;53.186;6.598;2023-12-14T08:25:21;4.50;99.90
52979;DHT22;63430;53.186;6.598;2023-12-14T08:27:27;4.50;99.90
52979;DHT22;63430;53.186;6.598;2023-12-14T08:29:29;4.50;99.90
52979;DHT22;63430;53.186;6.598;2023-12-14T08:31:32;4.50;99.90
52979;DHT22;63430;53.186;6.598;2023-12-14T08:33:35;4.50;99.90
52979;DHT22;63430;53.186;6.598;2023-12-14T08:35:37;4.50;99.90
52979;DHT22;63430;53.186;6.598;2023-12-14T08:37:40;4.50;99.90
52979;DHT22;63430;53.186;6.598;2023-12-14T08:39:43;4.60;99.90
52979;DHT22;63430;53.186;6.598;2023-12-14T08:41:46;4.60;99.90
52979;DHT22;63430;53.186;6.598;2023-12-14T08:43:51;4.60;99.90
52979;DHT22;63430;53.186;6.598;2023-12-14T08:45:54;4.60;99.90
52979;DHT22;63430;53.186;6.598;2023-12-14T08:47:57;4.60;99.90
52979;DHT22;63430;53.186;6.598;2023-12-14T08:50:00;4.60;99.90
52979;DHT22;63430;53.186;6.598;2023-12-14T08:52:03;4.60;99.90
52979;DHT22;63430;53.186;6.598;2023-12-14T08:54:06;4.60;99.90
52979;DHT22;63430;53.186;6.598;2023-12-14T08:56:09;4.60;99.90
52979;DHT22;63430;53.186;6.598;2023-12-14T08:58:12;4.70;99.90
52979;DHT22;63430;53.186;6.598;2023-12-14T09:00:19;4.70;99.90
52979;DHT22;63430;53.186;6.598;2023-12-14T09:02:21;4.70;99.90
52979;DHT22;63430;53.186;6.598;2023-12-14T09:04:24;4.70;99.90
52979;DHT22;63430;53.186;6.598;2023-12-14T09:06:28;5.30;99.90
52979;DHT22;63430;53.186;6.598;2023-12-14T09:08:31;4.80;99.90
52979;DHT22;63430;53.186;6.598;2023-12-14T09:10:33;4.80;99.90
52979;DHT22;63430;53.186;6.598;2023-12-14T09:12:38;4.80;99.90
52979;DHT22;63430;53.186;6.598;2023-12-14T09:14:40;4.80;99.90
52979;DHT22;63430;53.186;6.598;2023-12-14T09:16:46;4.90;99.90
52979;DHT22;63430;53.186;6.598;2023-12-14T09:18:48;4.90;99.90
52979;DHT22;63430;53.186;6.598;2023-12-14T09:20:51;4.90;99.90
52979;DHT22;63430;53.186;6.598;2023-12-14T09:22:54;4.90;99.90
52979;DHT22;63430;53.186;6.598;2023-12-14T09:24:56;4.90;99.90
52979;DHT22;63430;53.186;6.598;2023-12-14T09:26:59;5.10;99.90
52979;DHT22;63430;53.186;6.598;2023-12-14T09:29:01;6.10;99.90
52979;DHT22;63430;53.186;6.598;2023-12-14T09:31:05;5.00;99.90
52979;DHT22;63430;53.186;6.598;2023-12-14T09:33:13;5.00;99.90
52979;DHT22;63430;53.186;6.598;2023-12-14T09:35:16;5.00;99.90
52979;DHT22;63430;53.186;6.598;2023-12-14T09:37:20;5.00;99.90
52979;DHT22;63430;53.186;6.598;2023-12-14T09:39:23;5.00;99.90
52979;DHT22;63430;53.186;6.598;2023-12-14T09:41:25;5.10;99.90
52979;DHT22;63430;53.186;6.598;2023-12-14T09:43:28;6.10;99.90
52979;DHT22;63430;53.186;6.598;2023-12-14T09:45:30;5.10;99.90
52979;DHT22;63430;53.186;6.598;2023-12-14T09:47:33;5.10;99.90
52979;DHT22;63430;53.186;6.598;2023-12-14T09:49:39;5.10;99.90
52979;DHT22;63430;53.186;6.598;2023-12-14T09:51:45;5.10;99.90
52979;DHT22;63430;53.186;6.598;2023-12-14T09:53:49;5.10;99.90
52979;DHT22;63430;53.186;6.598;2023-12-14T09:55:53;5.10;99.90
52979;DHT22;63430;53.186;6.598;2023-12-14T09:57:56;4.10;99.90
52979;DHT22;63430;53.186;6.598;2023-12-14T09:59:58;5.20;99.90
52979;DHT22;63430;53.186;6.598;2023-12-14T10:02:11;5.20;99.90
52979;DHT22;63430;53.186;6.598;2023-12-14T10:04:15;5.10;99.90
52979;DHT22;63430;53.186;6.598;2023-12-14T10:06:21;5.20;99.90
52979;DHT22;63430;53.186;6.598;2023-12-14T10:08:25;5.20;99.90
52979;DHT22;63430;53.186;6.598;2023-12-14T10:10:29;5.20;99.90
52979;DHT22;63430;53.186;6.598;2023-12-14T10:12:32;5.30;99.90
52979;DHT22;63430;53.186;6.598;2023-12-14T10:14:37;5.30;99.90
52979;DHT22;63430;53.186;6.598;2023-12-14T10:16:40;5.30;99.90
52979;DHT22;63430;53.186;6.598;2023-12-14T10:18:43;5.30;99.90
52979;DHT22;63430;53.186;6.598;2023-12-14T10:20:47;5.30;99.90
52979;DHT22;63430;53.186;6.598;2023-12-14T10:22:53;5.30;99.90
52979;DHT22;63430;53.186;6.598;2023-12-14T10:24:56;5.30;99.90
52979;DHT22;63430;53.186;6.598;2023-12-14T10:26:59;6.00;99.90
52979;DHT22;63430;53.186;6.598;2023-12-14T10:29:02;5.30;99.90
52979;DHT22;63430;53.186;6.598;2023-12-14T10:31:07;5.30;99.90
52979;DHT22;63430;53.186;6.598;2023-12-14T10:33:10;5.40;99.90
52979;DHT22;63430;53.186;6.598;2023-12-14T10:35:13;6.30;99.90
52979;DHT22;63430;53.186;6.598;2023-12-14T10:37:18;5.30;99.90
52979;DHT22;63430;53.186;6.598;2023-12-14T10:39:26;5.40;99.90
52979;DHT22;63430;53.186;6.598;2023-12-14T10:41:30;5.40;99.90
52979;DHT22;63430;53.186;6.598;2023-12-14T10:43:39;5.40;99.90
52979;DHT22;63430;53.186;6.598;2023-12-14T10:45:51;6.10;99.90
52979;DHT22;63430;53.186;6.598;2023-12-14T10:47:56;5.50;99.90
52979;DHT22;63430;53.186;6.598;2023-12-14T10:50:01;6.50;99.90
52979;DHT22;63430;53.186;6.598;2023-12-14T10:52:05;5.50;99.90
52979;DHT22;63430;53.186;6.598;2023-12-14T10:54:08;5.60;99.90
52979;DHT22;63430;53.186;6.598;2023-12-14T10:56:34;5.70;99.90
52979;DHT22;63430;53.186;6.598;2023-12-14T10:58:47;5.70;99.90
52979;DHT22;63430;53.186;6.598;2023-12-14T11:01:00;5.80;99.90
52979;DHT22;63430;53.186;6.598;2023-12-14T11:03:06;5.80;99.90
52979;DHT22;63430;53.186;6.598;2023-12-14T11:05:09;7.00;99.90
52979;DHT22;63430;53.186;6.598;2023-12-14T11:07:15;5.80;99.90
52979;DHT22;63430;53.186;6.598;2023-12-14T11:09:18;6.40;99.90
52979;DHT22;63430;53.186;6.598;2023-12-14T11:11:21;5.80;99.90
52979;DHT22;63430;53.186;6.598;2023-12-14T11:13:27;5.80;99.90
52979;DHT22;63430;53.186;6.598;2023-12-14T11:15:34;5.80;99.90
52979;DHT22;63430;53.186;6.598;2023-12-14T11:17:37;5.80;99.90
52979;DHT22;63430;53.186;6.598;2023-12-14T11:19:40;6.40;99.90
52979;DHT22;63430;53.186;6.598;2023-12-14T11:21:43;5.80;99.90
52979;DHT22;63430;53.186;6.598;2023-12-14T11:23:47;6.30;99.90
52979;DHT22;63430;53.186;6.598;2023-12-14T11:25:53;5.80;99.90
52979;DHT22;63430;53.186;6.598;2023-12-14T11:28:03;5.80;99.90
52979;DHT22;63430;53.186;6.598;2023-12-14T11:30:11;5.80;99.90
52979;DHT22;63430;53.186;6.598;2023-12-14T11:32:14;5.80;99.90
52979;DHT22;63430;53.186;6.598;2023-12-14T11:34:17;5.70;99.90
52979;DHT22;63430;53.186;6.598;2023-12-14T11:36:20;5.90;99.90
52979;DHT22;63430;53.186;6.598;2023-12-14T11:38:23;5.90;99.90
52979;DHT22;63430;53.186;6.598;2023-12-14T11:40:27;5.90;99.90
52979;DHT22;63430;53.186;6.598;2023-12-14T11:42:30;5.90;99.90
52979;DHT22;63430;53.186;6.598;2023-12-14T11:44:34;6.00;99.90
52979;DHT22;63430;53.186;6.598;2023-12-14T11:46:40;6.00;99.90
52979;DHT22;63430;53.186;6.598;2023-12-14T11:48:45;6.00;99.90
52979;DHT22;63430;53.186;6.598;2023-12-14T11:50:48;6.00;99.90
52979;DHT22;63430;53.186;6.598;2023-12-14T11:53:12;7.30;99.90
52979;DHT22;63430;53.186;6.598;2023-12-14T11:55:16;6.00;99.90
52979;DHT22;63430;53.186;6.598;2023-12-14T11:57:38;6.00;99.90
52979;DHT22;63430;53.186;6.598;2023-12-14T11:59:42;6.10;99.90
52979;DHT22;63430;53.186;6.598;2023-12-14T12:02:09;6.00;99.90
52979;DHT22;63430;53.186;6.598;2023-12-14T12:04:12;6.00;99.90
52979;DHT22;63430;53.186;6.598;2023-12-14T12:06:21;6.00;99.90
52979;DHT22;63430;53.186;6.598;2023-12-14T12:08:25;6.10;99.90
52979;DHT22;63430;53.186;6.598;2023-12-14T12:10:28;6.10;99.90
52979;DHT22;63430;53.186;6.598;2023-12-14T12:12:33;6.10;99.90
52979;DHT22;63430;53.186;6.598;2023-12-14T12:14:40;6.10;99.90
52979;DHT22;63430;53.186;6.598;2023-12-14T12:16:46;5.60;99.90
52979;DHT22;63430;53.186;6.598;2023-12-14T12:18:51;6.00;99.90
52979;DHT22;63430;53.186;6.598;2023-12-14T12:20:54;6.10;99.90
52979;DHT22;63430;53.186;6.598;2023-12-14T12:22:57;6.10;99.90
52979;DHT22;63430;53.186;6.598;2023-12-14T12:25:00;6.10;99.90
52979;DHT22;63430;53.186;6.598;2023-12-14T12:27:16;6.10;99.90
52979;DHT22;63430;53.186;6.598;2023-12-14T12:29:18;6.10;99.90
52979;DHT22;63430;53.186;6.598;2023-12-14T12:31:21;6.10;99.90
52979;DHT22;63430;53.186;6.598;2023-12-14T12:33:24;6.10;99.90
52979;DHT22;63430;53.186;6.598;2023-12-14T12:35:31;6.10;99.90
52979;DHT22;63430;53.186;6.598;2023-12-14T12:37:35;6.00;99.90
52979;DHT22;63430;53.186;6.598;2023-12-14T12:39:38;6.10;99.90
52979;DHT22;63430;53.186;6.598;2023-12-14T12:41:41;6.20;99.90
52979;DHT22;63430;53.186;6.598;2023-12-14T12:43:43;6.10;99.90
52979;DHT22;63430;53.186;6.598;2023-12-14T12:45:46;6.60;99.90
52979;DHT22;63430;53.186;6.598;2023-12-14T12:50:38;6.10;99.90
52979;DHT22;63430;53.186;6.598;2023-12-14T12:52:41;6.10;99.90
52979;DHT22;63430;53.186;6.598;2023-12-14T12:55:06;6.10;99.90
52979;DHT22;63430;53.186;6.598;2023-12-14T12:57:14;6.00;99.90
52979;DHT22;63430;53.186;6.598;2023-12-14T12:59:18;6.00;99.90
52979;DHT22;63430;53.186;6.598;2023-12-14T13:01:22;6.00;99.90
52979;DHT22;63430;53.186;6.598;2023-12-14T13:03:26;6.00;99.90
52979;DHT22;63430;53.186;6.598;2023-12-14T13:05:32;6.10;99.90
52979;DHT22;63430;53.186;6.598;2023-12-14T13:07:38;7.20;99.90
52979;DHT22;63430;53.186;6.598;2023-12-14T13:09:41;6.00;99.90
52979;DHT22;63430;53.186;6.598;2023-12-14T13:11:44;6.00;99.90
52979;DHT22;63430;53.186;6.598;2023-12-14T13:13:47;6.00;99.90
52979;DHT22;63430;53.186;6.598;2023-12-14T13:15:50;6.00;99.90
52979;DHT22;63430;53.186;6.598;2023-12-14T13:17:53;6.00;99.90
52979;DHT22;63430;53.186;6.598;2023-12-14T13:19:56;6.50;99.90
52979;DHT22;63430;53.186;6.598;2023-12-14T13:21:59;6.00;99.90